createdAt,value
2018-11-25T00:00:03.163Z,99.47
2018-11-25T00:02:31.574Z,84.55
2018-11-25T00:04:59.787Z,88.42
2018-11-25T00:07:34.607Z,92.70
2018-11-25T00:09:56.260Z,86.08
2018-11-25T00:12:24.540Z,86.28
2018-11-25T00:14:52.772Z,100.50
2018-11-25T00:17:21.001Z,108.52
2018-11-25T00:19:49.486Z,87.90
2018-11-25T00:22:17.704Z,88.85
2018-11-25T00:24:45.940Z,78.50
2018-11-25T00:27:14.198Z,79.87
2018-11-25T00:29:42.408Z,72.85
2018-11-25T00:32:10.592Z,75.42
2018-11-25T00:34:38.808Z,82.95
2018-11-25T00:37:07.005Z,78.92
2018-11-25T00:39:35.227Z,81.50
2018-11-25T00:42:03.460Z,89.70
2018-11-25T00:44:31.679Z,98.95
2018-11-25T00:46:59.963Z,99.10
2018-11-25T00:49:28.199Z,83.78
2018-11-25T00:51:56.515Z,91.42
2018-11-25T00:54:24.746Z,86.30
2018-11-25T00:56:52.976Z,87.02
2018-11-25T00:59:21.161Z,95.97
2018-11-25T01:01:49.433Z,86.10
2018-11-25T01:04:17.904Z,81.72
2018-11-25T01:06:46.188Z,92.50
2018-11-25T01:09:14.383Z,84.52
2018-11-25T01:11:42.581Z,79.90
2018-11-25T01:14:10.787Z,91.57
2018-11-25T01:16:38.982Z,89.58
2018-11-25T01:19:07.255Z,80.42
2018-11-25T01:21:35.502Z,74.07
2018-11-25T01:24:03.710Z,84.85
2018-11-25T01:26:31.914Z,72.80
2018-11-25T01:29:00.228Z,83.12
2018-11-25T01:31:28.439Z,78.42
2018-11-25T01:33:56.671Z,87.62
2018-11-25T01:36:24.966Z,95.47
2018-11-25T01:38:53.650Z,86.32
2018-11-25T01:41:22.082Z,89.70
2018-11-25T01:43:50.374Z,73.62
2018-11-25T01:46:18.664Z,87.60
2018-11-25T01:48:46.877Z,85.28
2018-11-25T01:51:15.137Z,93.78
2018-11-25T01:53:43.457Z,83.20
2018-11-25T01:56:11.696Z,83.80
2018-11-25T01:58:39.928Z,86.10
2018-11-25T02:01:08.122Z,79.17
2018-11-25T02:03:36.348Z,84.52
2018-11-25T02:06:04.748Z,87.20
2018-11-25T02:08:32.959Z,82.00
2018-11-25T02:11:01.163Z,84.58
2018-11-25T02:13:29.460Z,102.00
2018-11-25T02:15:57.684Z,95.92
2018-11-25T02:18:25.971Z,93.30
2018-11-25T02:20:55.841Z,84.05
2018-11-25T02:23:24.100Z,85.15
2018-11-25T02:25:52.444Z,75.87
2018-11-25T02:28:20.658Z,80.12
2018-11-25T02:30:48.873Z,81.05
2018-11-25T02:33:17.048Z,78.65
2018-11-25T02:35:45.289Z,69.05
2018-11-25T02:38:13.487Z,71.97
2018-11-25T02:40:41.767Z,79.40
2018-11-25T02:43:10.128Z,75.32
2018-11-25T02:45:39.482Z,76.95
2018-11-25T02:48:07.635Z,76.12
2018-11-25T02:50:35.834Z,82.10
2018-11-25T02:53:06.267Z,79.15
2018-11-25T02:55:34.484Z,77.25
2018-11-25T02:58:02.711Z,76.10
2018-11-25T03:00:30.883Z,69.22
2018-11-25T03:02:59.125Z,71.92
2018-11-25T03:05:27.344Z,68.52
2018-11-25T03:07:55.609Z,75.30
2018-11-25T03:10:23.836Z,70.60
2018-11-25T03:12:52.160Z,70.55
2018-11-25T03:15:20.415Z,62.23
2018-11-25T03:17:48.701Z,68.02
2018-11-25T03:20:17.541Z,65.32
2018-11-25T03:22:45.745Z,65.78
2018-11-25T03:25:15.610Z,70.97
2018-11-25T03:27:43.830Z,68.02
2018-11-25T03:30:16.778Z,63.20
2018-11-25T03:32:45.752Z,83.27
2018-11-25T03:35:14.215Z,78.28
2018-11-25T03:37:42.427Z,69.05
2018-11-25T03:40:12.660Z,78.50
2018-11-25T03:42:40.932Z,89.25
2018-11-25T03:45:12.732Z,120.28
2018-11-25T03:47:40.970Z,75.45
2018-11-25T03:50:09.937Z,79.92
2018-11-25T03:52:38.219Z,76.45
2018-11-25T03:55:08.339Z,100.00
2018-11-25T03:57:36.632Z,76.97
2018-11-25T04:00:07.932Z,69.62
2018-11-25T04:02:36.132Z,71.90
2018-11-25T04:05:05.157Z,71.55
2018-11-25T04:07:33.337Z,82.02
2018-11-25T04:10:01.522Z,66.33
2018-11-25T04:12:29.740Z,65.97
2018-11-25T04:14:57.969Z,71.62
2018-11-25T04:17:26.211Z,69.70
2018-11-25T04:19:54.394Z,64.77
2018-11-25T04:22:22.586Z,67.00
2018-11-25T04:24:50.847Z,75.60
2018-11-25T04:27:19.060Z,71.35
2018-11-25T04:29:47.333Z,77.40
2018-11-25T04:32:15.545Z,71.72
2018-11-25T04:34:43.811Z,68.47
2018-11-25T04:37:12.132Z,74.92
2018-11-25T04:39:40.409Z,71.17
2018-11-25T04:42:08.683Z,71.55
2018-11-25T04:44:37.001Z,63.52
2018-11-25T04:47:05.385Z,64.15
2018-11-25T04:49:33.764Z,68.65
2018-11-25T04:52:01.962Z,68.47
2018-11-25T04:54:30.129Z,66.72
2018-11-25T04:56:58.313Z,68.90
2018-11-25T05:00:56.063Z,68.40
2018-11-25T05:03:24.253Z,69.70
2018-11-25T05:05:52.451Z,66.57
2018-11-25T05:08:20.686Z,69.60
2018-11-25T05:10:48.960Z,65.70
2018-11-25T05:13:17.218Z,64.37
2018-11-25T05:15:45.424Z,66.87
2018-11-25T05:18:13.620Z,61.10
2018-11-25T05:20:41.835Z,65.83
2018-11-25T05:23:10.091Z,68.72
2018-11-25T05:25:38.361Z,67.62
2018-11-25T05:28:06.555Z,61.02
2018-11-25T05:30:34.789Z,68.52
2018-11-25T05:33:02.999Z,66.02
2018-11-25T05:35:31.232Z,66.72
2018-11-25T05:37:59.535Z,66.42
2018-11-25T05:40:27.758Z,71.00
2018-11-25T05:42:56.096Z,66.22
2018-11-25T05:45:24.247Z,59.80
2018-11-25T05:47:52.477Z,60.63
2018-11-25T05:50:20.859Z,56.68
2018-11-25T05:52:49.129Z,61.33
2018-11-25T05:55:17.342Z,61.53
2018-11-25T05:57:45.576Z,62.93
2018-11-25T06:00:18.130Z,60.95
2018-11-25T06:02:46.300Z,55.92
2018-11-25T06:05:14.683Z,52.35
2018-11-25T06:07:42.853Z,57.10
2018-11-25T06:10:12.199Z,67.30
2018-11-25T06:12:40.418Z,61.23
2018-11-25T06:15:10.804Z,58.30
2018-11-25T06:17:38.997Z,55.85
2018-11-25T06:20:09.899Z,62.13
2018-11-25T06:22:38.223Z,61.33
2018-11-25T06:25:07.919Z,57.20
2018-11-25T06:27:38.189Z,54.85
2018-11-25T06:30:04.974Z,58.83
2018-11-25T06:32:33.205Z,55.92
2018-11-25T06:35:01.430Z,54.25
2018-11-25T06:37:29.684Z,52.73
2018-11-25T06:39:57.894Z,49.73
2018-11-25T06:42:26.140Z,50.85
2018-11-25T06:44:54.359Z,55.73
2018-11-25T06:47:22.802Z,54.30
2018-11-25T06:49:50.952Z,52.80
2018-11-25T06:52:19.315Z,58.40
2018-11-25T06:54:47.737Z,52.70
2018-11-25T06:57:16.325Z,55.73
2018-11-25T06:59:44.584Z,52.33
2018-11-25T07:02:12.767Z,52.55
2018-11-25T07:04:41.094Z,55.38
2018-11-25T07:07:10.143Z,52.48
2018-11-25T07:09:38.544Z,57.55
2018-11-25T07:12:06.914Z,64.10
2018-11-25T07:14:35.218Z,64.85
2018-11-25T07:17:03.595Z,62.10
2018-11-25T07:19:31.829Z,67.30
2018-11-25T07:22:00.328Z,69.92
2018-11-25T07:24:28.684Z,72.47
2018-11-25T07:26:57.077Z,68.02
2018-11-25T07:29:25.695Z,73.78
2018-11-25T07:31:54.148Z,81.70
2018-11-25T07:34:22.340Z,74.27
2018-11-25T07:36:50.608Z,68.15
2018-11-25T07:39:19.033Z,64.22
2018-11-25T07:41:47.415Z,64.53
2018-11-25T07:44:15.863Z,66.50
2018-11-25T07:46:44.322Z,74.65
2018-11-25T07:49:12.687Z,68.62
2018-11-25T07:51:40.876Z,57.60
2018-11-25T07:54:09.420Z,55.45
2018-11-25T07:56:38.897Z,64.67
2018-11-25T07:59:07.162Z,70.90
2018-11-25T08:01:35.801Z,65.50
2018-11-25T08:04:04.065Z,58.95
2018-11-25T08:06:32.347Z,62.98
2018-11-25T08:09:00.553Z,59.98
2018-11-25T08:11:28.790Z,62.98
2018-11-25T08:31:16.305Z,70.55
2018-11-25T08:33:44.535Z,64.72
2018-11-25T08:36:12.826Z,63.10
2018-11-25T08:38:41.039Z,66.70
2018-11-25T08:41:09.513Z,61.40
2018-11-25T08:43:37.834Z,53.98
2018-11-25T08:46:06.273Z,57.58
2018-11-25T08:48:34.518Z,76.80
2018-11-25T08:51:02.846Z,54.45
2018-11-25T08:53:32.127Z,57.43
2018-11-25T08:56:00.411Z,58.95
2018-11-25T08:58:28.645Z,63.58
2018-11-25T09:00:57.050Z,62.70
2018-11-25T09:03:25.341Z,60.67
2018-11-25T09:05:53.723Z,58.38
2018-11-25T09:08:21.995Z,58.20
2018-11-25T09:10:50.281Z,62.98
2018-11-25T09:13:18.649Z,62.88
2018-11-25T09:15:46.915Z,53.42
2018-11-25T09:18:15.207Z,55.20
2018-11-25T09:20:43.369Z,49.77
2018-11-25T09:23:11.555Z,56.48
2018-11-25T09:25:39.806Z,53.48
2018-11-25T09:28:07.988Z,54.33
2018-11-25T09:30:36.249Z,55.17
2018-11-25T09:33:04.478Z,55.58
2018-11-25T09:35:32.750Z,55.83
2018-11-25T09:38:00.983Z,48.13
2018-11-25T09:40:29.236Z,45.92
2018-11-25T09:42:57.490Z,56.80
2018-11-25T09:45:25.840Z,51.33
2018-11-25T09:47:54.100Z,62.75
2018-11-25T09:50:23.107Z,56.80
2018-11-25T09:52:51.554Z,54.33
2018-11-25T09:55:21.035Z,52.00
2018-11-25T09:57:50.768Z,59.42
2018-11-25T10:00:21.047Z,52.48
2018-11-25T10:02:49.211Z,49.25
2018-11-25T10:05:17.458Z,50.98
2018-11-25T10:07:46.386Z,67.27
2018-11-25T10:10:18.626Z,52.58
2018-11-25T10:12:46.894Z,55.95
2018-11-25T10:15:18.256Z,62.60
2018-11-25T10:17:46.435Z,54.15
2018-11-25T10:20:22.527Z,51.88
2018-11-25T10:22:50.749Z,52.55
2018-11-25T10:25:18.944Z,50.85
2018-11-25T10:27:47.149Z,51.85
2018-11-25T10:30:17.322Z,48.55
2018-11-25T10:32:46.296Z,51.18
2018-11-25T10:35:14.534Z,56.77
2018-11-25T10:37:42.737Z,56.53
2018-11-25T10:40:13.957Z,56.28
2018-11-25T10:42:42.269Z,61.92
2018-11-25T10:45:11.798Z,58.75
2018-11-25T10:47:39.999Z,59.38
2018-11-25T10:50:10.716Z,55.75
2018-11-25T10:52:38.965Z,59.40
2018-11-25T10:55:09.509Z,59.23
2018-11-25T10:57:37.760Z,63.13
2018-11-25T11:00:16.250Z,57.80
2018-11-25T11:02:45.021Z,55.58
2018-11-25T11:05:19.516Z,51.48
2018-11-25T11:07:48.755Z,56.77
2018-11-25T11:10:16.995Z,57.43
2018-11-25T11:12:45.207Z,54.33
2018-11-25T11:15:13.401Z,55.50
2018-11-25T11:17:41.629Z,51.53
2018-11-25T11:20:10.450Z,60.00
2018-11-25T11:22:38.690Z,53.83
2018-11-25T11:25:08.337Z,54.13
2018-11-25T11:27:36.729Z,52.93
2018-11-25T11:30:08.122Z,50.50
2018-11-25T11:32:36.533Z,53.80
2018-11-25T11:35:05.750Z,53.15
2018-11-25T11:37:33.959Z,51.83
2018-11-25T11:40:02.182Z,58.15
2018-11-25T11:42:30.440Z,59.65
2018-11-25T11:44:58.647Z,50.17
2018-11-25T11:47:27.022Z,64.42
2018-11-25T11:49:55.296Z,52.08
2018-11-25T11:52:23.471Z,50.00
2018-11-25T11:54:51.811Z,51.35
2018-11-25T11:57:20.030Z,50.63
2018-11-25T11:59:48.244Z,53.78
2018-11-25T12:02:16.477Z,55.50
2018-11-25T12:04:44.716Z,54.83
2018-11-25T12:07:12.981Z,56.88
2018-11-25T12:09:41.169Z,55.33
2018-11-25T12:12:09.390Z,55.28
2018-11-25T12:14:37.721Z,58.48
2018-11-25T12:17:06.017Z,78.52
2018-11-25T12:19:34.276Z,85.53
2018-11-25T12:22:02.572Z,57.35
2018-11-25T12:24:30.823Z,53.10
2018-11-25T12:26:59.018Z,48.95
2018-11-25T12:29:27.206Z,57.48
2018-11-25T12:31:55.426Z,53.10
2018-11-25T12:34:23.607Z,48.38
2018-11-25T12:36:51.901Z,48.25
2018-11-25T12:39:20.334Z,58.35
2018-11-25T12:41:48.581Z,50.05
2018-11-25T12:44:16.769Z,56.33
2018-11-25T12:46:45.024Z,51.10
2018-11-25T12:49:13.269Z,54.10
2018-11-25T12:51:41.470Z,48.90
2018-11-25T12:54:09.726Z,53.90
2018-11-25T12:56:37.919Z,51.13
2018-11-25T12:59:06.119Z,59.33
2018-11-25T13:01:34.420Z,60.40
2018-11-25T13:04:02.639Z,50.48
2018-11-25T13:06:30.874Z,52.03
2018-11-25T13:08:59.110Z,51.37
2018-11-25T13:11:27.301Z,56.25
2018-11-25T13:13:55.543Z,59.93
2018-11-25T13:16:23.771Z,57.15
2018-11-25T13:18:51.958Z,56.73
2018-11-25T13:21:20.305Z,48.45
2018-11-25T13:23:48.522Z,47.50
2018-11-25T13:27:46.287Z,55.10
2018-11-25T13:30:20.245Z,65.90
2018-11-25T13:32:48.551Z,69.25
2018-11-25T13:35:16.814Z,69.17
2018-11-25T13:37:44.995Z,72.25
2018-11-25T13:40:14.424Z,63.17
2018-11-25T13:42:42.678Z,65.08
2018-11-25T13:45:11.191Z,65.05
2018-11-25T13:47:40.350Z,56.60
2018-11-25T13:50:10.638Z,62.88
2018-11-25T13:52:38.902Z,63.38
2018-11-25T13:55:12.670Z,63.33
2018-11-25T13:57:40.875Z,67.87
2018-11-25T14:00:43.838Z,70.20
2018-11-25T14:03:17.212Z,59.85
2018-11-25T14:05:52.628Z,69.92
2018-11-25T14:08:13.727Z,79.53
2018-11-25T14:10:41.979Z,72.32
2018-11-25T14:13:10.282Z,72.30
2018-11-25T14:15:38.587Z,68.70
2018-11-25T14:18:07.213Z,66.95
2018-11-25T14:20:35.490Z,66.35
2018-11-25T14:23:03.753Z,67.90
2018-11-25T14:25:31.969Z,71.42
2018-11-25T14:28:03.359Z,73.22
2018-11-25T14:30:32.353Z,69.53
2018-11-25T14:33:00.618Z,69.85
2018-11-25T14:35:28.990Z,80.35
2018-11-25T14:37:57.325Z,74.53
2018-11-25T14:40:25.551Z,82.12
2018-11-25T14:42:54.083Z,73.95
2018-11-25T14:45:22.400Z,86.70
2018-11-25T14:47:50.645Z,78.52
2018-11-25T14:50:19.811Z,81.25
2018-11-25T14:52:49.426Z,83.22
2018-11-25T14:55:18.004Z,83.87
2018-11-25T14:57:46.256Z,78.45
2018-11-25T15:00:19.610Z,80.50
2018-11-25T15:02:49.369Z,71.92
2018-11-25T15:05:21.579Z,98.87
2018-11-25T15:07:49.809Z,90.60
2018-11-25T15:10:18.084Z,82.82
2018-11-25T15:12:46.418Z,86.15
2018-11-25T15:32:33.598Z,78.17
2018-11-25T15:35:01.961Z,91.02
2018-11-25T15:37:30.296Z,101.10
2018-11-25T15:39:58.564Z,79.45
2018-11-25T15:42:26.825Z,73.40
2018-11-25T15:44:55.090Z,82.65
2018-11-25T15:47:23.330Z,81.87
2018-11-25T15:49:51.606Z,75.62
2018-11-25T15:52:19.827Z,76.50
2018-11-25T15:54:48.044Z,76.30
2018-11-25T15:57:16.267Z,78.35
2018-11-25T15:59:44.550Z,78.22
2018-11-25T16:02:12.782Z,78.67
2018-11-25T16:04:41.023Z,81.63
2018-11-25T16:07:09.222Z,73.80
2018-11-25T16:09:37.467Z,69.12
2018-11-25T16:12:05.876Z,85.55
2018-11-25T16:14:34.122Z,78.92
2018-11-25T16:17:02.373Z,78.22
2018-11-25T16:19:30.640Z,80.35
2018-11-25T16:21:58.962Z,103.90
2018-11-25T16:24:27.249Z,72.75
2018-11-25T16:26:55.516Z,82.60
2018-11-25T16:29:25.930Z,91.00
2018-11-25T16:31:54.227Z,95.07
2018-11-25T16:34:22.492Z,78.70
2018-11-25T16:36:50.838Z,89.30
2018-11-25T16:39:19.101Z,97.80
2018-11-25T16:41:47.314Z,91.42
2018-11-25T16:44:15.547Z,97.05
2018-11-25T16:46:43.974Z,96.15
2018-11-25T16:49:12.275Z,93.35
2018-11-25T16:51:40.538Z,103.85
2018-11-25T16:54:08.785Z,105.27
2018-11-25T16:56:37.219Z,104.85
2018-11-25T16:59:05.717Z,98.10
2018-11-25T17:01:34.018Z,101.70
2018-11-25T17:04:02.241Z,96.80
2018-11-25T17:06:31.329Z,98.20
2018-11-25T17:08:59.593Z,105.83
2018-11-25T17:11:27.806Z,105.95
2018-11-25T17:13:56.073Z,103.50
2018-11-25T17:16:24.339Z,227.87
2018-11-25T17:18:52.602Z,166.28
2018-11-25T17:21:20.921Z,197.28
2018-11-25T17:23:49.189Z,104.53
2018-11-25T17:26:17.408Z,270.67
2018-11-25T17:28:45.620Z,115.85
2018-11-25T17:31:13.827Z,113.05
2018-11-25T17:33:42.373Z,112.08
2018-11-25T17:36:10.618Z,105.10
2018-11-25T17:38:38.925Z,109.60
2018-11-25T17:41:07.111Z,109.95
2018-11-25T17:43:35.330Z,104.95
2018-11-25T17:46:03.794Z,113.75
2018-11-25T17:48:31.982Z,110.60
2018-11-25T17:51:00.210Z,114.25
2018-11-25T17:53:28.390Z,113.95
2018-11-25T17:55:57.318Z,113.72
2018-11-25T17:58:25.522Z,114.32
2018-11-25T18:01:01.057Z,106.78
2018-11-25T18:03:30.622Z,98.40
2018-11-25T18:05:59.086Z,108.40
2018-11-25T18:08:27.314Z,101.12
2018-11-25T18:10:57.041Z,114.25
2018-11-25T18:13:27.285Z,98.65
2018-11-25T18:15:57.051Z,107.32
2018-11-25T18:18:32.731Z,93.75
2018-11-25T18:21:02.733Z,104.85
2018-11-25T18:23:31.406Z,263.60
2018-11-25T18:25:59.664Z,183.22
2018-11-25T18:28:28.266Z,107.60
2018-11-25T18:30:56.575Z,99.28
2018-11-25T18:33:24.917Z,109.35
2018-11-25T18:35:53.334Z,98.20
2018-11-25T18:38:21.681Z,108.57
2018-11-25T18:40:50.025Z,99.85
2018-11-25T18:43:18.892Z,91.72
2018-11-25T18:45:47.331Z,93.47
2018-11-25T18:48:16.455Z,98.00
2018-11-25T18:50:44.772Z,101.62
2018-11-25T18:53:13.253Z,106.40
2018-11-25T18:55:40.758Z,110.00
2018-11-25T18:58:09.145Z,81.45
2018-11-25T19:00:45.498Z,104.00
2018-11-25T19:03:13.816Z,91.87
2018-11-25T19:05:42.115Z,93.78
2018-11-25T19:08:10.399Z,87.50
2018-11-25T19:10:38.705Z,81.32
2018-11-25T19:13:06.968Z,89.25
2018-11-25T19:15:36.123Z,90.75
2018-11-25T19:18:04.438Z,74.90
2018-11-25T19:20:32.729Z,81.32
2018-11-25T19:23:00.963Z,91.97
2018-11-25T19:25:30.080Z,87.85
2018-11-25T19:27:58.398Z,80.45
2018-11-25T19:30:27.231Z,84.70
2018-11-25T19:32:55.696Z,78.12
2018-11-25T19:35:24.171Z,82.85
2018-11-25T19:37:52.730Z,89.67
2018-11-25T19:40:24.250Z,83.17
2018-11-25T19:42:52.632Z,82.05
2018-11-25T19:45:22.921Z,90.53
2018-11-25T19:47:51.212Z,86.37
2018-11-25T19:50:21.334Z,76.05
2018-11-25T19:52:49.633Z,75.17
2018-11-25T19:55:18.082Z,68.55
2018-11-25T19:57:46.405Z,70.25
2018-11-25T20:00:18.169Z,75.55
2018-11-25T20:02:46.420Z,75.65
2018-11-25T20:05:14.907Z,70.52
2018-11-25T20:07:45.712Z,63.00
2018-11-25T20:10:17.876Z,78.02
2018-11-25T20:12:47.927Z,75.83
2018-11-25T20:15:18.723Z,66.33
2018-11-25T20:17:54.092Z,67.03
2018-11-25T20:20:17.214Z,67.15
2018-11-25T20:22:45.898Z,58.80
2018-11-25T20:25:14.855Z,58.98
2018-11-25T20:27:55.085Z,57.58
2018-11-25T20:30:24.581Z,63.35
2018-11-25T20:32:58.411Z,63.40
2018-11-25T20:35:26.783Z,56.85
2018-11-25T20:38:00.521Z,58.65
2018-11-25T20:40:28.838Z,59.98
2018-11-25T20:42:57.864Z,57.93
2018-11-25T20:45:38.499Z,57.80
2018-11-25T20:48:00.605Z,57.55
2018-11-25T20:50:28.894Z,101.60
2018-11-25T20:53:02.557Z,62.15
2018-11-25T20:55:31.134Z,58.52
2018-11-25T20:57:59.557Z,49.38
2018-11-25T21:00:29.566Z,51.40
2018-11-25T21:02:57.948Z,59.15
2018-11-25T21:05:26.580Z,50.08
2018-11-25T21:07:55.021Z,48.00
2018-11-25T21:10:24.241Z,52.83
2018-11-25T21:12:54.012Z,57.65
2018-11-25T21:15:23.471Z,56.60
2018-11-25T21:17:52.769Z,63.02
2018-11-25T21:20:22.790Z,56.35
2018-11-25T21:22:51.195Z,53.75
2018-11-25T21:25:20.667Z,54.55
2018-11-25T21:27:49.260Z,47.98
2018-11-25T21:30:19.091Z,56.25
2018-11-25T21:32:48.259Z,53.08
2018-11-25T21:35:16.962Z,56.75
2018-11-25T21:37:45.368Z,50.58
2018-11-25T21:40:14.865Z,54.98
2018-11-25T21:42:43.159Z,56.55
2018-11-25T21:45:13.575Z,55.38
2018-11-25T21:47:42.095Z,51.85
2018-11-25T21:50:13.282Z,59.77
2018-11-25T21:52:41.737Z,49.10
2018-11-25T21:55:11.313Z,52.20
2018-11-25T21:57:39.689Z,50.20
2018-11-25T22:00:10.162Z,46.33
2018-11-25T22:02:38.470Z,46.35
2018-11-25T22:05:07.495Z,54.42
2018-11-25T22:07:35.916Z,51.70
2018-11-25T22:10:04.387Z,48.28
2018-11-25T22:12:32.859Z,53.38
2018-11-25T22:15:01.178Z,50.70
2018-11-25T22:17:29.417Z,48.38
2018-11-25T22:19:57.638Z,47.38
2018-11-25T22:22:26.066Z,53.50
2018-11-25T22:24:54.346Z,49.95
2018-11-25T22:27:22.610Z,51.88
2018-11-25T22:29:50.850Z,48.08
2018-11-25T22:32:19.183Z,52.35
2018-11-25T22:34:47.396Z,50.40
2018-11-25T22:37:15.637Z,47.62
2018-11-25T22:39:43.839Z,46.10
2018-11-25T22:42:12.086Z,45.20
2018-11-25T22:44:40.351Z,48.13
2018-11-25T22:47:09.266Z,45.65
2018-11-25T22:49:37.514Z,49.27
2018-11-25T22:53:35.494Z,48.00
2018-11-25T22:56:03.812Z,50.12
2018-11-25T22:58:33.025Z,42.70
2018-11-25T23:01:01.225Z,46.40
2018-11-25T23:03:29.461Z,49.08
2018-11-25T23:06:38.163Z,48.23
2018-11-25T23:09:08.421Z,44.33
2018-11-25T23:11:36.661Z,44.85
2018-11-25T23:14:04.960Z,53.75
2018-11-25T23:16:33.247Z,43.63
2018-11-25T23:19:01.693Z,45.60
2018-11-25T23:21:30.178Z,45.65
2018-11-25T23:23:58.507Z,40.45
2018-11-25T23:26:27.078Z,46.90
2018-11-25T23:28:55.440Z,43.35
2018-11-25T23:31:23.691Z,46.15
2018-11-25T23:33:52.033Z,42.53
2018-11-25T23:36:20.297Z,48.10
2018-11-25T23:38:48.629Z,44.20
2018-11-25T23:41:17.143Z,45.08
2018-11-25T23:43:45.510Z,49.98
2018-11-25T23:46:13.753Z,47.23
2018-11-25T23:48:42.145Z,44.70
2018-11-25T23:51:10.385Z,44.48
2018-11-25T23:53:38.685Z,48.55
2018-11-25T23:56:06.979Z,45.38
2018-11-25T23:58:35.498Z,50.15
